Time;durP1;ratioP1;P1;durP2;ratioP2;P2;SDS_P1;SDS_P2;PMS_P1;PMS_P2;Temp;Humidity;BMP_temperature;BMP_pressure;BME280_temperature;BME280_humidity;BME280_pressure;Samples;Min_cycle;Max_cycle;Signal;HPM_P1;HPM_P2
2022/10/08 00:05:21;;;;;;;7.73;4.80;;;11.50;99.90;;;;;;2616614;54;20134;-80
2022/10/08 00:11:12;;;;;;;14.77;6.10;;;11.40;99.90;;;;;;2617441;54;20126;-79
2022/10/08 00:16:59;;;;;;;11.50;4.93;;;11.50;99.90;;;;;;2617138;54;20383;-79
2022/10/08 00:22:48;;;;;;;14.90;5.85;;;11.50;99.90;;;;;;2616888;54;20277;-79
2022/10/08 00:28:37;;;;;;;14.17;7.00;;;11.60;99.90;;;;;;2616355;54;20464;-76
2022/10/08 00:34:26;;;;;;;10.48;4.78;;;11.60;99.90;;;;;;2614781;54;20939;-77
2022/10/08 00:44:13;;;;;;;10.67;5.17;;;11.60;99.90;;;;;;2616359;54;20419;-77
2022/10/08 00:56:40;;;;;;;10.02;4.72;;;11.60;99.90;;;;;;2615378;54;20395;-78
2022/10/08 01:02:27;;;;;;;9.32;5.78;;;11.60;99.90;;;;;;2616450;54;20391;-81
2022/10/08 01:15:00;;;;;;;8.77;5.43;;;11.40;99.90;;;;;;2617028;54;20422;-77
2022/10/08 01:20:52;;;;;;;9.60;5.27;;;11.50;99.90;;;;;;2616638;54;20151;-75
2022/10/08 01:39:38;;;;;;;15.85;5.40;;;11.60;99.90;;;;;;2616784;54;20615;-80
2022/10/08 01:45:33;;;;;;;12.57;4.70;;;11.70;99.90;;;;;;2615300;54;20387;-75
2022/10/08 01:51:28;;;;;;;5.55;4.28;;;11.70;99.90;;;;;;2615858;54;20392;-79
2022/10/08 01:57:15;;;;;;;5.93;4.50;;;12.00;99.90;;;;;;2616898;54;20379;-80
2022/10/08 02:03:03;;;;;;;8.87;4.13;;;11.90;99.90;;;;;;2615960;54;20408;-78
2022/10/08 02:08:50;;;;;;;6.40;4.70;;;12.00;99.90;;;;;;2614813;54;20367;-76
2022/10/08 02:14:42;;;;;;;6.27;4.77;;;12.00;99.90;;;;;;2616634;54;20162;-77
2022/10/08 02:20:43;;;;;;;7.67;4.60;;;12.10;99.90;;;;;;2616632;54;20358;-76
2022/10/08 02:26:39;;;;;;;8.90;4.50;;;12.20;99.90;;;;;;2616571;54;20507;-75
2022/10/08 02:38:53;;;;;;;9.00;4.40;;;12.70;99.90;;;;;;2613826;39;20992;-75
2022/10/08 02:50:56;;;;;;;8.13;4.53;;;12.60;99.90;;;;;;2613555;54;20419;-77
2022/10/08 02:56:50;;;;;;;5.97;4.30;;;12.60;99.90;;;;;;2615756;54;20380;-78
2022/10/08 03:09:30;;;;;;;4.93;3.67;;;12.50;99.90;;;;;;2618353;54;20939;-80
2022/10/08 03:15:17;;;;;;;8.77;3.93;;;12.70;99.90;;;;;;2618236;39;20526;-78
2022/10/08 03:18:21;;;;;;;9.90;4.57;;;12.80;99.90;;;;;;2620722;39;20764;-78
2022/10/08 03:20:50;;;;;;;7.70;3.77;;;12.70;99.90;;;;;;2616741;54;20937;-78
2022/10/08 03:26:38;;;;;;;12.43;4.35;;;12.60;99.90;;;;;;2615854;54;20154;-77
2022/10/08 03:32:27;;;;;;;7.83;4.07;;;12.60;99.90;;;;;;2616391;54;20419;-77
2022/10/08 03:38:15;;;;;;;9.87;4.23;;;12.40;99.90;;;;;;2617015;54;20395;-77
2022/10/08 03:47:24;;;;;;;12.20;4.53;;;11.90;99.90;;;;;;2616774;54;20396;-78
2022/10/08 03:53:12;;;;;;;11.13;5.53;;;11.70;99.90;;;;;;2617684;54;20138;-78
2022/10/08 03:59:00;;;;;;;12.00;7.30;;;11.60;99.90;;;;;;2617667;54;20169;-79
2022/10/08 04:04:48;;;;;;;10.87;5.63;;;11.50;99.90;;;;;;2617040;54;20341;-78
2022/10/08 04:10:37;;;;;;;11.03;7.83;;;11.50;99.90;;;;;;2616544;54;20166;-80
2022/10/08 04:16:25;;;;;;;14.03;7.50;;;11.40;99.90;;;;;;2616493;54;20407;-78
2022/10/08 04:22:12;;;;;;;17.40;7.83;;;11.40;99.90;;;;;;2615739;54;20663;-81
2022/10/08 04:28:01;;;;;;;18.85;8.63;;;11.30;99.90;;;;;;2617006;54;20652;-80
2022/10/08 04:33:50;;;;;;;13.03;7.33;;;11.40;99.90;;;;;;2616421;54;20951;-82
2022/10/08 04:39:37;;;;;;;9.27;6.27;;;11.30;99.90;;;;;;2617627;54;20406;-80
2022/10/08 04:42:48;;;;;;;14.63;6.73;;;11.40;99.90;;;;;;2617219;54;20407;-79
2022/10/08 04:45:13;;;;;;;19.17;7.07;;;11.20;99.90;;;;;;2618931;39;20587;-80
2022/10/08 04:51:04;;;;;;;11.77;8.13;;;11.30;99.90;;;;;;2615357;54;20150;-78
2022/10/08 04:56:53;;;;;;;11.70;8.07;;;11.20;99.90;;;;;;2615689;54;20431;-79
2022/10/08 05:02:41;;;;;;;11.70;8.77;;;11.30;99.90;;;;;;2617038;54;20391;-79
2022/10/08 05:08:29;;;;;;;18.50;9.70;;;11.30;99.90;;;;;;2616817;54;20137;-79
2022/10/08 05:14:16;;;;;;;20.20;12.40;;;11.40;99.90;;;;;;2617085;54;20130;-80
2022/10/08 05:20:04;;;;;;;18.47;12.90;;;11.30;99.90;;;;;;2615841;54;20917;-80
2022/10/08 05:25:52;;;;;;;22.47;12.40;;;11.30;99.90;;;;;;2617184;54;20985;-81
2022/10/08 05:31:40;;;;;;;20.00;14.77;;;11.30;99.90;;;;;;2618467;54;20133;-81
2022/10/08 05:37:28;;;;;;;17.60;13.73;;;11.30;99.90;;;;;;2617602;54;20391;-80
2022/10/08 05:47:22;;;;;;;14.13;12.57;;;11.40;99.90;;;;;;2618401;54;20387;-81
2022/10/08 05:53:09;;;;;;;14.65;13.15;;;11.40;99.90;;;;;;2619115;39;20793;-81
2022/10/08 05:58:56;;;;;;;12.73;10.63;;;11.40;99.90;;;;;;2618636;54;20646;-81
2022/10/08 06:04:47;;;;;;;13.37;9.67;;;11.40;99.90;;;;;;2618509;39;20637;-81
2022/10/08 06:10:34;;;;;;;21.10;9.53;;;11.50;99.90;;;;;;2618661;54;20342;-80
2022/10/08 06:16:23;;;;;;;13.20;8.63;;;11.60;99.90;;;;;;2616405;54;20130;-80
2022/10/08 06:22:10;;;;;;;14.20;8.63;;;11.60;99.90;;;;;;2615509;54;20423;-81
2022/10/08 06:27:58;;;;;;;17.40;9.27;;;11.70;99.90;;;;;;2617011;54;20138;-80
2022/10/08 06:33:46;;;;;;;15.80;8.97;;;11.80;99.90;;;;;;2616671;54;20207;-80
2022/10/08 06:39:34;;;;;;;10.90;8.95;;;11.80;99.90;;;;;;2616993;54;20122;-76
2022/10/08 06:42:50;;;;;;;14.53;9.77;;;11.90;99.90;;;;;;2614694;54;20238;-76
2022/10/08 06:45:16;;;;;;;12.17;9.50;;;11.90;99.90;;;;;;2615374;47;20438;-76
2022/10/08 06:51:06;;;;;;;17.77;9.43;;;11.90;99.90;;;;;;2614832;54;21274;-76
2022/10/08 06:56:54;;;;;;;23.20;10.13;;;12.00;99.90;;;;;;2614534;54;20416;-78
2022/10/08 07:02:43;;;;;;;20.60;13.30;;;12.00;99.90;;;;;;2614527;54;20135;-77
2022/10/08 07:08:30;;;;;;;12.50;11.13;;;12.10;99.90;;;;;;2614696;54;20398;-77
2022/10/08 07:14:18;;;;;;;13.77;11.53;;;12.20;99.90;;;;;;2615826;54;20165;-77
2022/10/08 07:20:07;;;;;;;13.77;11.63;;;12.20;99.90;;;;;;2616273;54;20122;-77
2022/10/08 07:25:56;;;;;;;15.63;13.20;;;12.30;99.90;;;;;;2616272;54;20439;-77
2022/10/08 07:31:43;;;;;;;19.77;14.63;;;12.30;99.90;;;;;;2615666;54;20383;-77
2022/10/08 07:37:31;;;;;;;21.53;17.20;;;12.30;99.90;;;;;;2615888;54;20298;-76
2022/10/08 07:47:22;;;;;;;23.43;20.77;;;12.40;99.90;;;;;;2616592;54;20391;-77
2022/10/08 07:53:09;;;;;;;24.08;17.77;;;12.60;99.90;;;;;;2614721;54;20407;-78
2022/10/08 07:58:58;;;;;;;24.13;18.80;;;12.70;99.90;;;;;;2616149;54;20130;-77
2022/10/08 08:04:46;;;;;;;27.57;19.27;;;12.90;99.90;;;;;;2613454;54;21048;-78
2022/10/08 08:10:35;;;;;;;28.10;18.77;;;12.70;99.90;;;;;;2615532;54;20235;-79
2022/10/08 08:16:25;;;;;;;22.60;17.87;;;12.80;99.90;;;;;;2617383;39;20766;-79
2022/10/08 08:22:13;;;;;;;31.30;18.03;;;13.20;99.90;;;;;;2617280;54;20402;-80
2022/10/08 08:28:01;;;;;;;28.30;19.13;;;13.30;99.90;;;;;;2617580;39;20681;-79
2022/10/08 08:33:54;;;;;;;23.95;17.55;;;13.30;99.90;;;;;;2616161;54;20134;-79
2022/10/08 08:39:42;;;;;;;19.83;15.67;;;13.40;99.90;;;;;;2616607;54;20395;-78
2022/10/08 08:42:51;;;;;;;26.33;16.40;;;14.10;99.90;;;;;;2616859;54;20407;-79
2022/10/08 08:51:47;;;;;;;21.40;16.07;;;13.90;99.90;;;;;;2616590;54;20390;-79
2022/10/08 09:04:25;;;;;;;20.83;14.37;;;14.20;99.90;;;;;;2616769;46;20434;-80
2022/10/08 09:10:20;;;;;;;21.30;16.40;;;14.40;99.90;;;;;;2619037;54;20484;-80
2022/10/08 09:16:12;;;;;;;23.30;13.90;;;15.20;99.90;;;;;;2616472;54;20376;-78
2022/10/08 09:19:15;;;;;;;19.00;14.33;;;14.30;99.90;;;;;;2616355;54;20427;-78
2022/10/08 09:21:41;;;;;;;19.05;14.65;;;15.20;99.90;;;;;;2615084;47;20430;-78
2022/10/08 09:27:42;;;;;;;16.23;14.13;;;15.00;99.90;;;;;;2615495;54;20162;-79
2022/10/08 09:33:31;;;;;;;16.80;11.38;;;15.50;99.90;;;;;;2617283;54;20387;-79
2022/10/08 09:39:24;;;;;;;12.03;10.40;;;16.40;99.90;;;;;;2617663;39;20715;-79
2022/10/08 09:51:43;;;;;;;12.80;9.83;;;14.80;99.90;;;;;;2615248;54;20411;-79
2022/10/08 09:57:32;;;;;;;12.77;8.70;;;14.70;99.90;;;;;;2616024;54;20190;-79
2022/10/08 10:03:25;;;;;;;15.20;11.20;;;14.60;99.90;;;;;;2616216;54;20408;-79
2022/10/08 10:15:38;;;;;;;12.90;9.50;;;14.50;99.90;;;;;;2616806;39;20747;-79
2022/10/08 10:34:28;;;;;;;10.10;5.23;;;14.40;99.90;;;;;;2615535;54;20384;-78
2022/10/08 10:40:35;;;;;;;7.47;5.17;;;14.40;99.90;;;;;;2615989;54;20391;-78
2022/10/08 10:46:48;;;;;;;8.30;5.43;;;14.20;99.90;;;;;;2616102;54;20442;-79
2022/10/08 10:52:42;;;;;;;8.43;5.80;;;14.90;99.90;;;;;;2616228;54;20238;-79
2022/10/08 10:58:48;;;;;;;9.50;4.90;;;14.60;99.90;;;;;;2616513;54;20491;-78
2022/10/08 11:05:04;;;;;;;5.73;5.23;;;14.60;99.90;;;;;;2616684;54;20366;-79
2022/10/08 11:10:57;;;;;;;7.73;5.00;;;14.90;99.90;;;;;;2616435;31;20861;-78
2022/10/08 11:23:27;;;;;;;7.37;3.20;;;15.10;67.60;;;;;;2633016;36;20778;-77
2022/10/08 11:46:52;;;;;;;5.03;4.40;;;17.30;34.10;;;;;;2605650;54;20472;-80
2022/10/08 11:52:39;;;;;;;4.47;3.97;;;18.10;26.80;;;;;;2612441;54;21033;-79
2022/10/08 11:58:32;;;;;;;4.03;3.65;;;18.50;26.70;;;;;;2615985;39;20504;-78
2022/10/08 12:04:35;;;;;;;7.70;3.30;;;17.70;29.70;;;;;;2615633;54;20395;-79
2022/10/08 12:10:38;;;;;;;3.60;3.13;;;16.60;38.10;;;;;;2613936;54;20452;-79
2022/10/08 12:16:54;;;;;;;6.20;3.77;;;17.10;27.60;;;;;;2614854;54;20363;-79
2022/10/08 12:22:42;;;;;;;4.63;3.70;;;18.10;23.50;;;;;;2614886;54;20409;-79
2022/10/08 12:58:32;;;;;;;4.17;3.43;;;17.10;24.80;;;;;;2615320;54;20408;-77
2022/10/08 13:04:24;;;;;;;5.30;4.80;;;16.90;25.30;;;;;;2615162;46;20387;-76
2022/10/08 13:10:22;;;;;;;8.87;3.50;;;16.90;28.30;;;;;;2615397;54;20392;-76
2022/10/08 13:16:21;;;;;;;4.97;3.50;;;18.00;24.60;;;;;;2612949;54;20961;-77
2022/10/08 13:33:07;;;;;;;4.53;4.13;;;17.60;24.70;;;;;;2614441;54;20916;-77
2022/10/08 13:38:56;;;;;;;5.67;3.80;;;17.20;33.80;;;;;;2615817;54;20399;-78
2022/10/08 13:44:44;;;;;;;5.37;3.60;;;17.00;29.80;;;;;;2614511;54;20143;-78
2022/10/08 13:47:54;;;;;;;5.77;3.77;;;17.00;40.70;;;;;;2615233;46;20559;-76
2022/10/08 13:50:23;;;;;;;5.83;4.10;;;16.30;44.40;;;;;;2614891;54;20515;-77
2022/10/08 13:56:10;;;;;;;5.40;3.70;;;19.30;29.40;;;;;;2614144;54;20458;-77
2022/10/08 14:01:58;;;;;;;3.45;3.15;;;19.80;23.10;;;;;;2616183;54;20150;-76
2022/10/08 14:07:50;;;;;;;5.30;4.77;;;18.10;29.60;;;;;;2616208;54;20119;-76
2022/10/08 14:13:37;;;;;;;3.80;3.43;;;19.70;21.00;;;;;;2616625;54;20432;-78
2022/10/08 14:19:27;;;;;;;13.60;8.20;;;20.60;19.90;;;;;;2616536;54;20150;-78
2022/10/08 14:25:18;;;;;;;7.40;3.80;;;17.10;27.50;;;;;;2616225;54;20410;-77
2022/10/08 14:31:06;;;;;;;5.20;3.97;;;19.20;23.30;;;;;;2617261;54;20391;-76
2022/10/08 14:36:54;;;;;;;4.37;4.03;;;17.70;25.60;;;;;;2616582;54;20388;-77
2022/10/08 14:42:42;;;;;;;9.03;3.70;;;18.60;24.50;;;;;;2616343;39;20767;-76
2022/10/08 14:58:49;;;;;;;3.97;3.67;;;20.90;21.70;;;;;;2612616;54;20385;-77
2022/10/08 15:04:37;;;;;;;8.27;4.20;;;19.70;21.60;;;;;;2615235;54;20151;-77
2022/10/08 15:10:26;;;;;;;4.17;3.50;;;19.60;21.20;;;;;;2614343;54;20391;-79
2022/10/08 15:16:13;;;;;;;4.40;3.70;;;19.70;21.00;;;;;;2612257;54;20396;-77
2022/10/08 15:19:16;;;;;;;4.07;3.67;;;19.80;20.80;;;;;;2613574;54;20439;-77
2022/10/08 15:21:42;;;;;;;7.18;6.47;;;19.40;21.80;;;;;;2611727;47;20454;-78
2022/10/08 15:27:29;;;;;;;5.20;3.70;;;19.50;21.80;;;;;;2615143;54;20129;-79
2022/10/08 15:30:14;;;;;;;5.33;3.90;;;19.30;22.60;;;;;;2615533;47;20408;-79
2022/10/08 15:32:39;;;;;;;5.35;4.05;;;17.60;22.50;;;;;;2616607;54;20714;-80
2022/10/08 15:38:27;;;;;;;5.73;3.80;;;16.80;26.10;;;;;;2616658;54;21196;-80
2022/10/08 15:47:51;;;;;;;4.53;4.13;;;17.10;30.60;;;;;;2615527;54;20942;-81
2022/10/08 15:53:38;;;;;;;4.80;4.30;;;16.80;28.80;;;;;;2616533;54;20555;-78
2022/10/08 15:59:26;;;;;;;5.93;3.90;;;15.60;39.30;;;;;;2616862;54;20207;-81
2022/10/08 16:05:13;;;;;;;5.00;4.40;;;15.30;43.70;;;;;;2616713;54;20134;-80
2022/10/08 16:11:23;;;;;;;6.10;4.60;;;17.20;33.50;;;;;;2617024;54;20634;-79
2022/10/08 16:17:10;;;;;;;3.72;3.35;;;17.40;29.10;;;;;;2616991;54;20471;-80
2022/10/08 16:22:58;;;;;;;6.17;4.10;;;16.60;27.40;;;;;;2615953;54;20247;-77
2022/10/08 16:28:55;;;;;;;4.27;3.80;;;16.20;27.70;;;;;;2616007;54;20123;-77
2022/10/08 16:34:48;;;;;;;6.53;3.40;;;15.40;32.60;;;;;;2617709;54;20387;-79
2022/10/08 16:40:36;;;;;;;4.90;4.40;;;14.70;38.30;;;;;;2617699;54;20423;-79
2022/10/08 16:46:27;;;;;;;5.87;4.27;;;14.60;34.50;;;;;;2618224;54;20666;-79
2022/10/08 16:48:56;;;;;;;4.93;4.53;;;14.40;37.10;;;;;;2616633;46;20415;-78
2022/10/08 16:51:23;;;;;;;6.20;5.60;;;14.20;39.90;;;;;;2614744;54;20495;-78
2022/10/08 16:57:10;;;;;;;5.13;4.70;;;14.00;44.70;;;;;;2617140;54;20406;-77
2022/10/08 17:02:58;;;;;;;9.63;4.70;;;13.50;54.60;;;;;;2616125;54;20159;-76
2022/10/08 17:08:46;;;;;;;6.23;5.60;;;13.40;59.60;;;;;;2616875;54;20379;-77
2022/10/08 17:14:36;;;;;;;9.73;7.37;;;13.30;59.50;;;;;;2615602;54;20371;-78
2022/10/08 17:20:24;;;;;;;8.23;5.43;;;12.90;80.10;;;;;;2617237;54;21209;-78
2022/10/08 17:32:56;;;;;;;16.27;13.30;;;12.10;99.90;;;;;;2615170;54;20468;-78
2022/10/08 17:38:44;;;;;;;14.00;11.70;;;11.80;99.90;;;;;;2614563;54;20206;-78
2022/10/08 17:44:32;;;;;;;14.90;11.80;;;11.40;99.90;;;;;;2615255;46;20917;-78
2022/10/08 17:53:41;;;;;;;8.47;6.33;;;11.40;99.90;;;;;;2615373;39;20987;-77
2022/10/08 17:59:28;;;;;;;5.90;4.33;;;11.10;99.90;;;;;;2615315;54;20416;-78
2022/10/08 18:05:15;;;;;;;5.30;4.77;;;11.00;99.90;;;;;;2615188;54;20137;-78
2022/10/08 18:11:07;;;;;;;9.40;7.27;;;10.70;99.90;;;;;;2615770;54;20121;-77
2022/10/08 18:16:56;;;;;;;6.13;5.53;;;10.40;99.90;;;;;;2616063;54;20370;-78
2022/10/08 18:22:43;;;;;;;10.90;9.90;;;10.10;99.90;;;;;;2615066;54;20367;-78
2022/10/08 18:28:31;;;;;;;8.67;7.67;;;10.00;99.90;;;;;;2617110;54;20115;-80
2022/10/08 18:34:19;;;;;;;11.23;5.70;;;9.90;99.90;;;;;;2614650;54;20139;-78
2022/10/08 18:40:07;;;;;;;9.10;5.10;;;9.70;99.90;;;;;;2614661;54;20394;-77
2022/10/08 18:49:18;;;;;;;10.40;6.23;;;9.40;99.90;;;;;;2615668;54;20387;-76
2022/10/08 18:55:06;;;;;;;9.10;5.80;;;9.40;99.90;;;;;;2614162;54;20380;-76
2022/10/08 19:00:54;;;;;;;8.63;5.80;;;9.20;99.90;;;;;;2615315;39;20779;-76
2022/10/08 19:06:44;;;;;;;11.83;5.30;;;9.10;99.90;;;;;;2615751;54;20378;-76
2022/10/08 19:12:32;;;;;;;9.17;6.37;;;9.00;99.90;;;;;;2616251;54;20413;-77
2022/10/08 19:18:19;;;;;;;11.43;7.30;;;8.90;99.90;;;;;;2615610;54;20708;-78
2022/10/08 19:24:14;;;;;;;9.00;6.70;;;8.90;99.90;;;;;;2615356;39;20554;-79
2022/10/08 19:30:01;;;;;;;14.73;6.40;;;8.90;99.90;;;;;;2614126;54;20456;-77
2022/10/08 19:35:49;;;;;;;10.57;7.80;;;8.80;99.90;;;;;;2616461;54;20123;-79
2022/10/08 19:41:38;;;;;;;9.67;7.47;;;8.70;99.90;;;;;;2615383;54;20145;-76
2022/10/08 19:47:26;;;;;;;9.30;7.27;;;8.50;99.90;;;;;;2615173;54;20934;-78
2022/10/08 19:56:44;;;;;;;8.93;7.03;;;8.50;99.90;;;;;;2615971;39;20756;-77
2022/10/08 20:02:32;;;;;;;10.57;8.40;;;8.40;99.90;;;;;;2614399;54;20475;-78
2022/10/08 20:08:21;;;;;;;11.30;9.07;;;8.70;99.90;;;;;;2615023;54;20165;-78
2022/10/08 20:14:10;;;;;;;14.33;10.00;;;8.60;99.90;;;;;;2615918;54;20402;-77
2022/10/08 20:19:58;;;;;;;12.83;9.30;;;8.40;99.90;;;;;;2616060;54;20410;-78
2022/10/08 20:25:45;;;;;;;10.03;8.30;;;8.50;99.90;;;;;;2615681;54;20481;-79
2022/10/08 20:31:42;;;;;;;10.00;8.93;;;8.50;99.90;;;;;;2616730;54;20147;-77
2022/10/08 20:37:30;;;;;;;11.43;7.97;;;8.60;99.90;;;;;;2616030;39;20860;-77
2022/10/08 20:43:18;;;;;;;19.57;7.80;;;8.50;99.90;;;;;;2615941;54;20155;-78
2022/10/08 20:49:06;;;;;;;15.03;8.30;;;8.60;99.90;;;;;;2615764;54;20160;-78
2022/10/08 20:52:10;;;;;;;12.20;8.60;;;8.40;99.90;;;;;;2615742;54;20487;-78
2022/10/08 20:54:35;;;;;;;10.60;8.30;;;8.50;99.90;;;;;;2615598;51;20458;-79
2022/10/08 21:00:23;;;;;;;10.45;8.20;;;8.40;99.90;;;;;;2616844;54;20123;-79
2022/10/08 21:06:14;;;;;;;12.13;8.03;;;8.50;99.90;;;;;;2616820;54;20411;-79
2022/10/08 21:12:03;;;;;;;11.90;8.07;;;8.40;99.90;;;;;;2615667;54;20360;-78
2022/10/08 21:17:50;;;;;;;10.63;8.10;;;8.20;99.90;;;;;;2616213;54;20426;-79
2022/10/08 21:20:16;;;;;;;12.80;8.17;;;8.20;99.90;;;;;;2616979;54;20462;-79
2022/10/08 21:22:42;;;;;;;8.70;7.90;;;8.10;99.90;;;;;;2616113;54;20250;-78
2022/10/08 21:25:07;;;;;;;11.27;8.13;;;8.20;99.90;;;;;;2616801;39;20543;-79
2022/10/08 21:30:55;;;;;;;12.37;8.10;;;8.10;99.90;;;;;;2617210;54;20161;-78
2022/10/08 21:36:43;;;;;;;15.80;9.17;;;7.90;99.90;;;;;;2617398;54;20134;-78
2022/10/08 21:42:31;;;;;;;13.70;8.10;;;7.90;99.90;;;;;;2615831;54;20469;-78
2022/10/08 21:48:19;;;;;;;14.23;9.70;;;7.90;99.90;;;;;;2617035;54;20397;-79
2022/10/08 21:57:29;;;;;;;12.63;9.50;;;7.90;99.90;;;;;;2617238;39;20804;-77
2022/10/08 22:03:17;;;;;;;14.77;10.70;;;7.90;99.90;;;;;;2618307;54;20108;-76
2022/10/08 22:09:09;;;;;;;9.80;8.80;;;7.70;99.90;;;;;;2617218;54;20411;-78
2022/10/08 22:14:57;;;;;;;8.70;7.90;;;7.70;99.90;;;;;;2616737;54;20469;-77
2022/10/08 22:20:45;;;;;;;10.27;9.07;;;7.60;99.90;;;;;;2617305;39;20533;-76
2022/10/08 22:26:36;;;;;;;12.90;9.07;;;7.60;99.90;;;;;;2617133;54;20140;-77
2022/10/08 22:32:24;;;;;;;12.83;9.43;;;7.50;99.90;;;;;;2616621;54;20382;-77
2022/10/08 22:38:13;;;;;;;18.10;11.53;;;7.60;99.90;;;;;;2616463;54;20660;-78
2022/10/08 22:44:02;;;;;;;11.30;9.43;;;7.60;99.90;;;;;;2616201;54;20382;-78
2022/10/08 22:49:50;;;;;;;14.63;9.77;;;7.60;99.90;;;;;;2616844;46;20431;-77
2022/10/08 22:53:01;;;;;;;9.47;8.50;;;7.60;99.90;;;;;;2615524;47;20420;-77
2022/10/08 22:55:28;;;;;;;15.90;9.80;;;7.60;99.90;;;;;;2616395;54;20174;-77
2022/10/08 23:01:21;;;;;;;23.30;10.03;;;7.30;99.90;;;;;;2616237;54;20401;-78
2022/10/08 23:07:09;;;;;;;14.90;9.88;;;7.30;99.90;;;;;;2615667;54;20382;-79
2022/10/08 23:12:56;;;;;;;12.60;9.57;;;7.30;99.90;;;;;;2616293;54;20135;-77
2022/10/08 23:18:46;;;;;;;13.47;9.13;;;7.30;99.90;;;;;;2616902;54;20691;-78
2022/10/08 23:24:34;;;;;;;12.93;8.93;;;7.30;99.90;;;;;;2616883;54;20468;-80
2022/10/08 23:30:21;;;;;;;19.67;10.00;;;7.10;99.90;;;;;;2618150;39;20782;-79
2022/10/08 23:36:12;;;;;;;13.10;10.37;;;7.10;99.90;;;;;;2616054;54;20470;-76
2022/10/08 23:42:00;;;;;;;13.10;9.30;;;7.20;99.90;;;;;;2616104;54;20416;-77
2022/10/08 23:47:48;;;;;;;9.73;8.63;;;6.90;99.90;;;;;;2616169;54;20150;-77
2022/10/08 23:57:31;;;;;;;10.05;8.48;;;6.50;99.90;;;;;;2616292;54;20349;-76
